createdAt,value
2023-02-08T00:01:54.334Z,9.53
2023-02-08T00:04:22.890Z,7.67
2023-02-08T00:06:57.382Z,7.93
2023-02-08T00:12:18.860Z,8.43
2023-02-08T00:14:47.596Z,8.57
2023-02-08T00:17:16.131Z,9.00
2023-02-08T00:19:44.947Z,9.10
2023-02-08T00:22:18.044Z,8.37
2023-02-08T00:24:46.938Z,8.10
2023-02-08T00:27:16.105Z,8.80
2023-02-08T00:29:44.975Z,10.60
2023-02-08T00:32:13.876Z,8.57
2023-02-08T00:34:42.651Z,8.30
2023-02-08T00:37:11.179Z,9.47
2023-02-08T00:39:43.530Z,10.33
2023-02-08T00:42:12.661Z,10.10
2023-02-08T00:44:41.391Z,9.53
2023-02-08T00:47:09.918Z,10.53
2023-02-08T00:49:45.756Z,9.37
2023-02-08T00:52:14.787Z,8.93
2023-02-08T00:54:48.464Z,9.23
2023-02-08T00:57:17.257Z,8.23
2023-02-08T00:59:45.903Z,10.40
2023-02-08T01:02:14.334Z,9.20
2023-02-08T01:04:43.093Z,8.30
2023-02-08T01:07:13.707Z,9.70
2023-02-08T01:09:46.898Z,10.13
2023-02-08T01:12:15.411Z,8.60
2023-02-08T01:14:44.217Z,9.70
2023-02-08T01:17:12.908Z,8.60
2023-02-08T01:19:42.588Z,8.87
2023-02-08T01:22:11.142Z,9.93
2023-02-08T01:24:40.104Z,9.63
2023-02-08T01:27:10.046Z,11.17
2023-02-08T01:29:39.160Z,10.80
2023-02-08T01:32:07.628Z,9.27
2023-02-08T01:34:36.202Z,8.77
2023-02-08T01:37:05.317Z,8.37
2023-02-08T01:39:34.375Z,8.90
2023-02-08T01:42:05.938Z,9.00
2023-02-08T01:48:48.440Z,7.60
2023-02-08T01:51:20.559Z,10.00
2023-02-08T01:53:50.489Z,7.00
2023-02-08T01:56:32.929Z,9.93
2023-02-08T01:59:03.805Z,10.00
2023-02-08T02:01:33.043Z,9.53
2023-02-08T02:04:04.591Z,9.47
2023-02-08T02:06:36.569Z,9.20
2023-02-08T02:09:11.685Z,9.07
2023-02-08T02:11:41.050Z,8.17
2023-02-08T02:14:10.310Z,8.90
2023-02-08T02:16:38.907Z,8.63
2023-02-08T02:19:17.666Z,9.37
2023-02-08T02:21:53.239Z,8.07
2023-02-08T02:24:44.169Z,7.97
2023-02-08T02:27:22.697Z,9.73
2023-02-08T02:30:35.820Z,8.00
2023-02-08T02:33:33.337Z,7.00
2023-02-08T02:36:05.119Z,8.40
2023-02-08T02:38:42.409Z,7.03
2023-02-08T02:41:41.433Z,7.57
2023-02-08T02:44:16.910Z,7.97
2023-02-08T02:46:49.622Z,8.60
2023-02-08T02:49:24.407Z,8.97
2023-02-08T02:51:58.545Z,8.47
2023-02-08T02:54:32.958Z,8.70
2023-02-08T02:57:05.912Z,9.20
2023-02-08T02:59:34.890Z,8.50
2023-02-08T03:02:04.274Z,10.10
2023-02-08T03:04:52.070Z,8.60
2023-02-08T03:07:33.612Z,8.57
2023-02-08T03:10:08.331Z,8.30
2023-02-08T03:12:41.632Z,7.20
2023-02-08T03:15:18.454Z,8.33
2023-02-08T03:17:59.341Z,8.70
2023-02-08T03:20:31.806Z,9.77
2023-02-08T03:23:03.223Z,8.23
2023-02-08T03:25:37.907Z,10.00
2023-02-08T03:28:11.342Z,9.00
2023-02-08T03:30:47.092Z,10.13
2023-02-08T03:33:19.031Z,11.43
2023-02-08T03:35:53.723Z,11.97
2023-02-08T03:38:26.228Z,10.77
2023-02-08T03:40:56.621Z,12.80
2023-02-08T03:43:45.602Z,10.80
2023-02-08T03:46:20.094Z,9.87
2023-02-08T03:48:55.122Z,10.67
2023-02-08T03:51:28.110Z,10.50
2023-02-08T03:53:57.664Z,11.00
2023-02-08T03:56:33.541Z,9.27
2023-02-08T03:59:03.947Z,7.87
2023-02-08T04:01:37.092Z,9.17
2023-02-08T04:04:09.534Z,10.10
2023-02-08T04:06:40.516Z,10.73
2023-02-08T04:09:09.773Z,9.97
2023-02-08T04:11:44.697Z,11.80
2023-02-08T04:14:13.601Z,12.87
2023-02-08T04:16:41.975Z,11.00
2023-02-08T04:19:10.501Z,12.27
2023-02-08T04:21:40.810Z,10.10
2023-02-08T04:24:09.521Z,13.50
2023-02-08T04:26:38.624Z,11.43
2023-02-08T04:29:07.298Z,10.83
2023-02-08T04:31:47.152Z,11.37
2023-02-08T04:34:17.515Z,10.40
2023-02-08T04:36:47.400Z,10.80
2023-02-08T04:39:15.878Z,12.10
2023-02-08T04:41:44.452Z,13.10
2023-02-08T04:44:12.920Z,12.57
2023-02-08T04:46:41.579Z,13.50
2023-02-08T04:49:10.820Z,13.93
2023-02-08T04:51:39.609Z,12.90
2023-02-08T04:54:09.664Z,11.90
2023-02-08T04:56:38.955Z,15.43
2023-02-08T04:59:07.588Z,15.57
2023-02-08T05:01:36.255Z,14.23
2023-02-08T05:04:05.584Z,14.40
2023-02-08T05:06:33.948Z,13.50
2023-02-08T05:09:04.224Z,12.67
2023-02-08T05:11:34.377Z,11.30
2023-02-08T05:14:02.872Z,11.57
2023-02-08T05:16:31.670Z,14.40
2023-02-08T05:19:00.469Z,11.93
2023-02-08T05:21:31.984Z,13.47
2023-02-08T05:24:00.463Z,11.00
2023-02-08T05:26:31.202Z,12.27
2023-02-08T05:29:01.215Z,12.33
2023-02-08T05:31:30.311Z,11.37
2023-02-08T05:33:59.348Z,12.47
2023-02-08T05:36:27.822Z,11.57
2023-02-08T05:38:56.849Z,12.17
2023-02-08T05:41:25.829Z,11.90
2023-02-08T05:44:02.598Z,12.30
2023-02-08T05:46:31.403Z,10.60
2023-02-08T05:49:00.307Z,11.20
2023-02-08T05:51:28.832Z,11.43
2023-02-08T05:53:58.527Z,10.87
2023-02-08T05:56:28.205Z,11.97
2023-02-08T05:58:57.130Z,11.83
2023-02-08T06:01:28.739Z,13.47
2023-02-08T06:04:00.281Z,12.47
2023-02-08T06:06:28.977Z,12.90
2023-02-08T06:08:57.615Z,11.03
2023-02-08T06:11:28.172Z,11.10
2023-02-08T06:13:59.107Z,13.67
2023-02-08T06:16:29.121Z,10.53
2023-02-08T06:18:57.926Z,11.67
2023-02-08T06:21:26.931Z,11.60
2023-02-08T06:23:55.789Z,12.80
2023-02-08T06:26:49.767Z,11.47
2023-02-08T06:29:18.806Z,12.27
2023-02-08T06:31:49.133Z,10.37
2023-02-08T06:34:17.731Z,11.17
2023-02-08T06:36:46.876Z,10.10
2023-02-08T06:39:15.557Z,11.73
2023-02-08T06:41:44.440Z,10.60
2023-02-08T06:44:13.080Z,12.07
2023-02-08T06:46:41.722Z,12.83
2023-02-08T06:49:13.113Z,13.43
2023-02-08T06:51:41.798Z,10.50
2023-02-08T06:54:13.688Z,11.67
2023-02-08T06:56:44.898Z,10.90
2023-02-08T06:59:15.721Z,12.00
2023-02-08T07:01:44.452Z,12.70
2023-02-08T07:04:48.324Z,10.63
2023-02-08T07:07:18.458Z,9.90
2023-02-08T07:09:47.110Z,12.97
2023-02-08T07:12:15.891Z,12.77
2023-02-08T07:14:45.129Z,12.90
2023-02-08T07:17:14.846Z,16.17
2023-02-08T07:19:43.153Z,17.40
2023-02-08T07:22:13.491Z,15.50
2023-02-08T07:24:42.974Z,10.67
2023-02-08T07:27:18.305Z,9.07
2023-02-08T07:30:10.552Z,11.00
2023-02-08T07:33:04.817Z,9.80
2023-02-08T07:35:48.318Z,9.80
2023-02-08T07:38:20.719Z,11.00
2023-02-08T07:40:52.223Z,11.63
2023-02-08T07:43:20.796Z,10.13
2023-02-08T07:45:50.036Z,9.27
2023-02-08T07:48:18.519Z,11.37
2023-02-08T07:50:49.794Z,13.60
2023-02-08T07:53:19.755Z,11.90
2023-02-08T07:55:50.802Z,9.93
2023-02-08T07:58:19.445Z,9.67
2023-02-08T08:00:49.104Z,10.80
2023-02-08T08:03:17.746Z,12.00
2023-02-08T08:05:46.814Z,10.80
2023-02-08T08:08:18.629Z,10.63
2023-02-08T08:10:49.689Z,10.10
2023-02-08T08:13:18.106Z,11.90
2023-02-08T08:15:46.991Z,10.17
2023-02-08T08:18:15.865Z,11.30
2023-02-08T08:20:44.637Z,9.17
2023-02-08T08:23:13.383Z,11.57
2023-02-08T08:25:42.309Z,11.87
2023-02-08T08:28:12.156Z,10.70
2023-02-08T08:30:44.987Z,12.80
2023-02-08T08:33:14.408Z,13.00
2023-02-08T08:35:47.551Z,11.47
2023-02-08T08:38:18.611Z,13.20
2023-02-08T08:40:47.357Z,12.80
2023-02-08T08:43:17.680Z,13.90
2023-02-08T08:45:46.980Z,13.43
2023-02-08T08:48:16.089Z,14.70
2023-02-08T08:50:45.109Z,16.50
2023-02-08T08:53:14.073Z,15.70
2023-02-08T08:55:44.347Z,17.17
2023-02-08T08:58:14.411Z,18.37
2023-02-08T09:00:44.427Z,15.90
2023-02-08T09:03:13.420Z,16.77
2023-02-08T09:05:42.537Z,16.63
2023-02-08T09:08:14.004Z,14.70
2023-02-08T09:10:44.720Z,16.50
2023-02-08T09:13:19.704Z,14.63
2023-02-08T09:15:50.310Z,12.60
2023-02-08T09:18:19.075Z,12.90
2023-02-08T09:20:48.356Z,11.70
2023-02-08T09:23:17.271Z,13.07
2023-02-08T09:25:45.977Z,13.90
2023-02-08T09:28:14.621Z,11.50
2023-02-08T09:30:46.616Z,12.47
2023-02-08T09:33:16.800Z,14.20
2023-02-08T09:35:45.650Z,13.27
2023-02-08T09:38:14.772Z,11.37
2023-02-08T09:40:50.028Z,11.50
2023-02-08T09:43:22.662Z,9.23
2023-02-08T09:45:59.967Z,9.70
2023-02-08T09:48:35.797Z,11.37
2023-02-08T09:51:12.646Z,10.23
2023-02-08T09:53:54.843Z,8.97
2023-02-08T09:56:29.258Z,10.50
2023-02-08T09:59:02.578Z,9.30
2023-02-08T10:01:34.319Z,10.30
2023-02-08T10:04:09.123Z,10.37
2023-02-08T10:06:58.757Z,11.10
2023-02-08T10:09:29.863Z,9.00
2023-02-08T10:12:08.492Z,9.50
2023-02-08T10:15:01.033Z,10.03
2023-02-08T10:17:41.211Z,9.40
2023-02-08T10:20:28.405Z,14.13
2023-02-08T10:23:05.769Z,11.90
2023-02-08T10:25:48.422Z,19.07
2023-02-08T10:28:30.536Z,22.30
2023-02-08T10:31:04.567Z,19.63
2023-02-08T10:33:38.077Z,41.60
2023-02-08T10:36:15.223Z,25.83
2023-02-08T10:38:47.184Z,14.10
2023-02-08T10:41:35.136Z,10.20
2023-02-08T10:44:07.502Z,8.30
2023-02-08T10:46:41.980Z,6.70
2023-02-08T10:49:34.072Z,6.77
2023-02-08T10:52:04.435Z,7.20
2023-02-08T10:54:32.970Z,7.10
2023-02-08T10:57:04.752Z,8.70
2023-02-08T10:59:35.610Z,6.93
2023-02-08T11:02:06.836Z,6.70
2023-02-08T11:04:35.403Z,7.50
2023-02-08T11:07:21.286Z,7.70
2023-02-08T11:09:49.929Z,8.00
2023-02-08T11:12:20.890Z,8.57
2023-02-08T11:14:51.010Z,7.00
2023-02-08T11:17:30.657Z,8.13
2023-02-08T11:20:02.574Z,8.30
2023-02-08T11:22:34.703Z,6.37
2023-02-08T11:25:05.636Z,5.83
2023-02-08T11:27:41.552Z,6.07
2023-02-08T11:30:24.798Z,7.43
2023-02-08T11:33:19.620Z,7.37
2023-02-08T11:36:08.123Z,4.70
2023-02-08T11:38:45.230Z,4.60
2023-02-08T11:41:20.023Z,5.30
2023-02-08T11:43:57.672Z,5.17
2023-02-08T11:46:27.738Z,6.43
2023-02-08T11:48:57.191Z,4.70
2023-02-08T11:51:28.934Z,5.10
2023-02-08T11:54:00.728Z,5.17
2023-02-08T11:56:46.880Z,5.10
2023-02-08T11:59:24.043Z,5.70
2023-02-08T12:01:58.124Z,5.43
2023-02-08T12:04:26.866Z,5.93
2023-02-08T12:07:15.525Z,6.90
2023-02-08T12:10:20.084Z,6.77
2023-02-08T12:13:12.687Z,6.37
2023-02-08T12:15:57.764Z,7.63
2023-02-08T12:18:44.728Z,6.83
2023-02-08T12:21:20.165Z,7.97
2023-02-08T12:23:56.073Z,8.30
2023-02-08T12:26:40.353Z,6.97
2023-02-08T12:29:19.900Z,6.20
2023-02-08T12:32:01.988Z,7.00
2023-02-08T12:34:44.517Z,6.30
2023-02-08T12:37:40.906Z,6.30
2023-02-08T12:40:36.685Z,5.73
2023-02-08T12:43:14.977Z,5.20
2023-02-08T12:46:12.541Z,5.87
2023-02-08T12:48:58.746Z,7.37
2023-02-08T12:51:32.914Z,5.83
2023-02-08T12:54:06.322Z,6.37
2023-02-08T12:56:37.425Z,6.27
2023-02-08T12:59:13.530Z,10.93
2023-02-08T13:01:46.714Z,13.33
2023-02-08T13:04:21.765Z,10.90
2023-02-08T13:06:53.597Z,9.90
2023-02-08T13:09:35.855Z,8.40
2023-02-08T13:12:08.548Z,8.37
2023-02-08T13:14:41.969Z,9.60
2023-02-08T13:17:20.072Z,9.80
2023-02-08T13:20:00.565Z,11.20
2023-02-08T13:22:33.254Z,8.40
2023-02-08T13:25:08.437Z,9.17
2023-02-08T13:27:37.565Z,8.07
2023-02-08T13:30:08.936Z,6.80
2023-02-08T13:32:44.088Z,8.00
2023-02-08T13:35:19.403Z,7.63
2023-02-08T13:37:52.622Z,8.17
2023-02-08T13:40:28.420Z,8.70
2023-02-08T13:43:01.122Z,7.63
2023-02-08T13:45:33.145Z,9.83
2023-02-08T13:48:06.105Z,9.27
2023-02-08T13:50:46.942Z,10.57
2023-02-08T13:53:17.680Z,9.83
2023-02-08T13:56:09.049Z,9.83
2023-02-08T13:59:05.943Z,9.73
2023-02-08T14:02:27.235Z,9.13
2023-02-08T14:05:15.879Z,9.37
2023-02-08T14:07:46.083Z,9.40
2023-02-08T14:10:41.442Z,8.17
2023-02-08T14:13:25.160Z,8.90
2023-02-08T14:16:25.046Z,8.87
2023-02-08T14:18:54.635Z,8.30
2023-02-08T14:21:32.217Z,8.43
2023-02-08T14:24:03.609Z,8.73
2023-02-08T14:26:32.811Z,9.07
2023-02-08T14:29:03.576Z,9.30
2023-02-08T14:31:41.183Z,9.03
2023-02-08T14:34:23.081Z,8.93
2023-02-08T14:37:06.224Z,8.40
2023-02-08T14:39:37.605Z,8.23
2023-02-08T14:42:09.049Z,9.00
2023-02-08T14:44:58.516Z,9.20
2023-02-08T14:48:08.079Z,9.33
2023-02-08T14:50:51.773Z,9.63
2023-02-08T14:53:27.193Z,8.67
2023-02-08T14:55:59.910Z,8.27
2023-02-08T14:58:31.820Z,8.73
2023-02-08T15:01:03.948Z,8.23
2023-02-08T15:03:34.097Z,8.80
2023-02-08T15:06:17.212Z,8.20
2023-02-08T15:08:51.204Z,9.60
2023-02-08T15:11:27.614Z,9.13
2023-02-08T15:14:02.210Z,12.03
2023-02-08T15:16:34.507Z,11.27
2023-02-08T15:19:04.849Z,11.97
2023-02-08T15:21:36.918Z,13.20
2023-02-08T15:24:15.784Z,11.07
2023-02-08T15:26:48.582Z,13.10
2023-02-08T15:29:26.173Z,12.00
2023-02-08T15:32:01.766Z,16.07
2023-02-08T15:34:30.644Z,13.47
2023-02-08T15:37:00.266Z,13.67
2023-02-08T15:39:36.141Z,16.67
2023-02-08T15:42:07.655Z,14.70
2023-02-08T15:44:36.667Z,17.53
2023-02-08T15:47:06.844Z,20.53
2023-02-08T15:49:37.963Z,15.43
2023-02-08T15:52:08.083Z,10.93
2023-02-08T15:54:38.138Z,10.70
2023-02-08T15:57:09.717Z,11.40
2023-02-08T15:59:40.737Z,12.10
2023-02-08T16:02:35.978Z,13.37
2023-02-08T16:05:14.204Z,9.93
2023-02-08T16:07:47.783Z,11.17
2023-02-08T16:10:26.972Z,9.90
2023-02-08T16:13:02.775Z,10.83
2023-02-08T16:15:45.685Z,10.67
2023-02-08T16:18:36.356Z,8.90
2023-02-08T16:21:07.816Z,9.60
2023-02-08T16:23:40.733Z,12.87
2023-02-08T16:26:19.526Z,10.63
2023-02-08T16:28:55.118Z,9.20
2023-02-08T16:31:30.328Z,9.37
2023-02-08T16:34:01.638Z,9.80
2023-02-08T16:36:36.892Z,10.60
2023-02-08T16:39:48.209Z,9.83
2023-02-08T16:42:36.974Z,6.77
2023-02-08T16:45:23.521Z,7.37
2023-02-08T16:47:54.368Z,7.77
2023-02-08T16:50:24.989Z,8.83
2023-02-08T16:52:56.122Z,9.03
2023-02-08T16:55:26.843Z,8.13
2023-02-08T16:57:58.901Z,10.43
2023-02-08T17:00:29.642Z,13.40
2023-02-08T17:02:59.238Z,11.30
2023-02-08T17:05:30.134Z,10.93
2023-02-08T17:07:58.948Z,10.80
2023-02-08T17:10:29.316Z,9.93
2023-02-08T17:13:17.402Z,7.50
2023-02-08T17:15:49.650Z,9.70
2023-02-08T17:18:18.318Z,10.07
2023-02-08T17:20:47.677Z,9.37
2023-02-08T17:23:18.501Z,8.73
2023-02-08T17:25:50.201Z,9.57
2023-02-08T17:28:23.069Z,8.97
2023-02-08T17:30:53.372Z,9.70
2023-02-08T17:33:22.063Z,9.10
2023-02-08T17:35:54.120Z,8.57
2023-02-08T17:38:28.841Z,9.07
2023-02-08T17:41:00.470Z,8.70
2023-02-08T17:43:30.855Z,9.57
2023-02-08T17:46:01.321Z,10.37
2023-02-08T17:48:30.609Z,11.00
2023-02-08T17:51:03.074Z,10.37
2023-02-08T17:53:33.340Z,7.80
2023-02-08T17:56:02.892Z,8.77
2023-02-08T17:58:33.146Z,8.60
2023-02-08T18:01:02.116Z,8.77
2023-02-08T18:03:31.161Z,7.50
2023-02-08T18:06:01.285Z,9.47
2023-02-08T18:08:30.375Z,8.10
2023-02-08T18:11:04.839Z,9.17
2023-02-08T18:13:41.100Z,8.70
2023-02-08T18:16:10.914Z,10.80
2023-02-08T18:18:39.766Z,8.33
2023-02-08T18:21:13.871Z,9.33
2023-02-08T18:23:43.517Z,8.57
2023-02-08T18:26:14.642Z,10.17
2023-02-08T18:28:45.429Z,11.20
2023-02-08T18:31:20.420Z,11.63
2023-02-08T18:33:50.936Z,12.40
2023-02-08T18:36:20.854Z,25.60
2023-02-08T18:38:51.575Z,19.70
2023-02-08T18:41:23.445Z,11.30
2023-02-08T18:43:55.145Z,8.83
2023-02-08T18:46:28.542Z,10.03
2023-02-08T18:48:58.250Z,8.97
2023-02-08T18:51:31.419Z,9.77
2023-02-08T18:54:00.898Z,8.30
2023-02-08T18:56:30.017Z,9.10
2023-02-08T18:59:01.099Z,10.03
2023-02-08T19:01:32.658Z,10.50
2023-02-08T19:04:02.507Z,8.50
2023-02-08T19:06:32.832Z,8.17
2023-02-08T19:09:05.114Z,7.53
2023-02-08T19:11:35.786Z,7.97
2023-02-08T19:14:07.816Z,8.60
2023-02-08T19:16:38.229Z,7.73
2023-02-08T19:19:08.198Z,7.47
2023-02-08T19:21:37.599Z,8.17
2023-02-08T19:24:07.316Z,8.40
2023-02-08T19:26:44.455Z,7.73
2023-02-08T19:29:22.138Z,7.23
2023-02-08T19:31:54.950Z,7.43
2023-02-08T19:34:25.203Z,7.67
2023-02-08T19:36:55.289Z,8.33
2023-02-08T19:39:26.120Z,8.30
2023-02-08T19:41:55.182Z,8.50
2023-02-08T19:44:26.447Z,6.40
2023-02-08T19:46:57.044Z,6.97
2023-02-08T19:49:27.537Z,7.77
2023-02-08T19:51:56.822Z,7.00
2023-02-08T19:54:28.994Z,6.90
2023-02-08T19:56:58.661Z,8.23
2023-02-08T19:59:34.105Z,6.77
2023-02-08T20:02:11.821Z,7.67
2023-02-08T20:04:40.993Z,7.97
2023-02-08T20:07:10.589Z,7.90
2023-02-08T20:09:39.614Z,7.60
2023-02-08T20:12:08.617Z,7.20
2023-02-08T20:14:50.411Z,7.20
2023-02-08T20:17:19.131Z,7.57
2023-02-08T20:19:48.108Z,7.40
2023-02-08T20:22:17.254Z,6.93
2023-02-08T20:24:46.296Z,7.70
2023-02-08T20:27:19.911Z,6.97
2023-02-08T20:29:50.743Z,5.47
2023-02-08T20:32:22.604Z,6.47
2023-02-08T20:34:59.788Z,7.40
2023-02-08T20:37:31.302Z,6.33
2023-02-08T20:40:00.160Z,7.20
2023-02-08T20:42:31.126Z,6.23
2023-02-08T20:45:01.129Z,6.70
2023-02-08T20:47:33.900Z,7.07
2023-02-08T20:50:17.938Z,6.33
2023-02-08T20:52:49.426Z,7.47
2023-02-08T20:55:18.436Z,12.60
2023-02-08T20:57:47.184Z,10.97
2023-02-08T21:00:17.717Z,8.20
2023-02-08T21:02:46.869Z,8.70
2023-02-08T21:05:15.418Z,9.17
2023-02-08T21:07:44.248Z,11.10
2023-02-08T21:10:12.822Z,10.07
2023-02-08T21:12:41.534Z,8.67
2023-02-08T21:15:11.247Z,6.60
2023-02-08T21:17:41.476Z,7.50
2023-02-08T21:20:12.157Z,7.63
2023-02-08T21:22:40.524Z,7.53
2023-02-08T21:25:14.784Z,6.57
2023-02-08T21:27:46.652Z,7.70
2023-02-08T21:30:15.668Z,13.07
2023-02-08T21:32:46.242Z,12.23
2023-02-08T21:35:15.776Z,8.97
2023-02-08T21:37:44.344Z,8.30
2023-02-08T21:40:13.223Z,6.93
2023-02-08T21:42:45.091Z,6.10
2023-02-08T21:45:14.818Z,5.80
2023-02-08T21:47:46.387Z,7.17
2023-02-08T21:50:34.246Z,5.67
2023-02-08T21:53:20.079Z,5.53
2023-02-08T21:55:49.243Z,6.37
2023-02-08T21:58:18.210Z,5.90
2023-02-08T22:00:46.959Z,5.33
2023-02-08T22:03:18.651Z,5.53
2023-02-08T22:06:06.331Z,5.43
2023-02-08T22:08:35.188Z,7.00
2023-02-08T22:11:04.913Z,6.57
2023-02-08T22:13:33.855Z,5.67
2023-02-08T22:16:02.692Z,6.10
2023-02-08T22:18:30.985Z,6.23
2023-02-08T22:21:01.395Z,5.47
2023-02-08T22:23:30.133Z,6.10
2023-02-08T22:25:58.907Z,6.53
2023-02-08T22:28:27.524Z,4.90
2023-02-08T22:30:57.168Z,5.13
2023-02-08T22:33:32.452Z,6.77
2023-02-08T22:36:02.482Z,5.93
2023-02-08T22:38:31.305Z,5.53
2023-02-08T22:41:02.034Z,6.00
2023-02-08T22:43:31.308Z,6.27
2023-02-08T22:46:02.940Z,5.33
2023-02-08T22:48:34.293Z,5.63
2023-02-08T22:51:08.827Z,6.30
2023-02-08T22:53:37.520Z,5.07
2023-02-08T22:56:06.930Z,5.63
2023-02-08T22:58:43.489Z,5.27
2023-02-08T23:01:12.638Z,4.63
2023-02-08T23:03:47.190Z,6.30
2023-02-08T23:06:18.337Z,6.10
2023-02-08T23:08:48.364Z,5.67
2023-02-08T23:11:17.424Z,5.60
2023-02-08T23:13:46.231Z,6.20
2023-02-08T23:16:15.360Z,5.70
2023-02-08T23:18:44.240Z,6.43
2023-02-08T23:21:15.511Z,5.60
2023-02-08T23:23:46.538Z,5.47
2023-02-08T23:26:16.797Z,5.50
2023-02-08T23:28:45.774Z,5.37
2023-02-08T23:31:16.737Z,4.57
2023-02-08T23:33:45.679Z,6.20
2023-02-08T23:36:18.376Z,5.10
2023-02-08T23:38:48.473Z,5.83
2023-02-08T23:41:19.287Z,5.23
2023-02-08T23:43:48.613Z,5.40
2023-02-08T23:46:19.161Z,5.27
2023-02-08T23:48:48.870Z,4.87
2023-02-08T23:51:19.153Z,4.50
2023-02-08T23:53:49.485Z,4.87
2023-02-08T23:56:19.948Z,5.00
2023-02-08T23:58:51.333Z,6.50
